createdAt,value
2019-05-03T00:01:02.371Z,10.80
2019-05-03T00:03:31.978Z,10.80
2019-05-03T00:06:02.245Z,10.90
2019-05-03T00:08:30.818Z,11.00
2019-05-03T00:10:59.305Z,10.90
2019-05-03T00:13:27.770Z,11.00
2019-05-03T00:15:58.056Z,11.00
2019-05-03T00:18:26.686Z,11.00
2019-05-03T00:20:55.244Z,11.00
2019-05-03T00:23:23.686Z,11.00
2019-05-03T00:25:52.947Z,11.00
2019-05-03T00:28:21.758Z,11.00
2019-05-03T00:30:51.900Z,11.00
2019-05-03T00:33:22.283Z,11.00
2019-05-03T00:36:08.456Z,11.00
2019-05-03T00:38:36.956Z,11.00
2019-05-03T00:41:07.120Z,11.00
2019-05-03T00:43:36.994Z,11.00
2019-05-03T00:46:05.583Z,11.00
2019-05-03T00:48:34.028Z,10.90
2019-05-03T00:51:02.590Z,11.00
2019-05-03T00:53:31.743Z,11.00
2019-05-03T00:56:01.787Z,11.00
2019-05-03T00:58:31.831Z,11.00
2019-05-03T01:01:02.495Z,11.00
2019-05-03T01:03:32.530Z,11.00
2019-05-03T01:06:02.256Z,11.00
2019-05-03T01:08:32.520Z,11.00
2019-05-03T01:11:02.116Z,11.10
2019-05-03T01:13:32.067Z,11.00
2019-05-03T01:16:05.212Z,11.00
2019-05-03T01:18:32.990Z,11.10
2019-05-03T01:21:02.308Z,11.10
2019-05-03T01:23:32.600Z,11.10
2019-05-03T01:26:02.483Z,11.10
2019-05-03T01:28:32.308Z,11.00
2019-05-03T01:31:02.592Z,11.10
2019-05-03T01:33:32.178Z,11.00
2019-05-03T01:36:02.785Z,11.00
2019-05-03T01:38:31.884Z,11.00
2019-05-03T01:41:01.731Z,11.00
2019-05-03T01:43:31.807Z,11.00
2019-05-03T01:46:02.513Z,11.00
2019-05-03T01:48:32.333Z,11.00
2019-05-03T01:51:14.255Z,11.00
2019-05-03T01:53:44.308Z,11.00
2019-05-03T01:56:12.884Z,11.00
2019-05-03T01:58:41.757Z,10.90
2019-05-03T02:01:26.898Z,10.90
2019-05-03T02:04:03.056Z,10.90
2019-05-03T02:06:31.889Z,10.80
2019-05-03T02:09:01.625Z,10.80
2019-05-03T02:11:30.202Z,10.90
2019-05-03T02:13:58.747Z,10.80
2019-05-03T02:16:27.212Z,10.90
2019-05-03T02:18:55.757Z,10.90
2019-05-03T02:21:24.331Z,10.80
2019-05-03T02:23:52.789Z,10.70
2019-05-03T02:26:23.361Z,10.60
2019-05-03T02:28:52.741Z,10.60
2019-05-03T02:31:23.198Z,10.40
2019-05-03T02:33:53.447Z,10.40
2019-05-03T02:36:23.264Z,10.30
2019-05-03T02:38:53.436Z,10.20
2019-05-03T02:41:22.831Z,10.10
2019-05-03T02:43:55.810Z,10.00
2019-05-03T02:46:36.791Z,9.90
2019-05-03T02:49:22.010Z,9.90
2019-05-03T02:51:50.443Z,9.80
2019-05-03T02:54:18.894Z,9.80
2019-05-03T02:56:47.320Z,9.70
2019-05-03T02:59:16.181Z,9.70
2019-05-03T03:01:46.467Z,9.70
2019-05-03T03:04:15.950Z,9.60
2019-05-03T03:06:47.349Z,9.50
2019-05-03T03:09:19.237Z,9.40
2019-05-03T03:11:50.743Z,9.30
2019-05-03T03:14:21.508Z,9.20
2019-05-03T03:16:51.809Z,9.10
2019-05-03T03:19:25.981Z,8.90
2019-05-03T03:21:56.596Z,8.80
2019-05-03T03:24:27.796Z,8.80
2019-05-03T03:26:58.376Z,8.70
2019-05-03T03:29:28.434Z,8.70
2019-05-03T03:32:17.688Z,8.70
2019-05-03T03:34:54.664Z,8.80
2019-05-03T03:37:17.648Z,8.80
2019-05-03T03:39:46.240Z,8.90
2019-05-03T03:42:16.069Z,9.00
2019-05-03T03:44:45.564Z,9.20
2019-05-03T03:47:16.739Z,9.20
2019-05-03T03:49:46.519Z,9.30
2019-05-03T03:52:16.944Z,9.30
2019-05-03T03:54:47.928Z,9.20
2019-05-03T03:57:18.271Z,9.20
2019-05-03T03:59:47.314Z,9.20
2019-05-03T04:02:16.224Z,9.20
2019-05-03T04:04:45.387Z,9.10
2019-05-03T04:07:15.736Z,9.00
2019-05-03T04:09:45.651Z,8.90
2019-05-03T04:12:16.594Z,8.90
2019-05-03T04:14:46.526Z,8.80
2019-05-03T04:17:25.782Z,8.80
2019-05-03T04:19:55.927Z,8.70
2019-05-03T04:22:25.445Z,8.70
2019-05-03T04:24:55.363Z,8.70
2019-05-03T04:27:27.241Z,8.70
2019-05-03T04:29:55.690Z,8.60
2019-05-03T04:32:28.475Z,8.60
2019-05-03T04:34:56.001Z,8.50
2019-05-03T04:37:26.555Z,8.50
2019-05-03T04:39:56.100Z,8.40
2019-05-03T04:42:25.565Z,8.40
2019-05-03T04:44:56.278Z,8.40
2019-05-03T04:47:26.302Z,8.40
2019-05-03T04:49:55.567Z,8.40
2019-05-03T04:52:25.873Z,8.60
2019-05-03T04:54:56.658Z,8.70
2019-05-03T04:57:36.359Z,8.90
2019-05-03T04:59:56.264Z,9.00
2019-05-03T05:02:26.389Z,9.20
2019-05-03T05:04:55.645Z,9.40
2019-05-03T05:07:26.109Z,9.50
2019-05-03T05:09:56.188Z,9.70
2019-05-03T05:12:25.347Z,9.80
2019-05-03T05:14:56.119Z,9.80
2019-05-03T05:17:31.447Z,9.60
2019-05-03T05:20:01.555Z,9.70
2019-05-03T05:22:31.758Z,9.70
2019-05-03T05:25:01.874Z,9.70
2019-05-03T05:27:47.889Z,9.90
2019-05-03T05:30:07.738Z,9.90
2019-05-03T05:32:36.277Z,9.90
2019-05-03T05:35:06.406Z,9.90
2019-05-03T05:37:36.526Z,9.90
2019-05-03T05:40:06.701Z,10.00
2019-05-03T05:42:35.393Z,10.10
2019-05-03T05:45:05.498Z,10.30
2019-05-03T05:47:54.763Z,10.20
2019-05-03T05:50:27.685Z,10.00
2019-05-03T05:52:56.154Z,10.40
2019-05-03T05:55:42.159Z,10.70
2019-05-03T05:58:21.119Z,10.80
2019-05-03T06:00:59.845Z,11.00
2019-05-03T06:03:28.331Z,10.80
2019-05-03T06:05:58.498Z,10.60
2019-05-03T06:08:28.606Z,10.70
2019-05-03T06:11:17.057Z,10.70
2019-05-03T06:13:47.439Z,10.40
2019-05-03T06:16:20.348Z,10.20
2019-05-03T06:18:54.448Z,10.30
2019-05-03T06:21:31.094Z,10.30
2019-05-03T06:24:18.692Z,10.30
2019-05-03T06:26:57.259Z,10.40
2019-05-03T06:29:25.778Z,10.70
2019-05-03T06:32:07.723Z,10.80
2019-05-03T06:34:36.431Z,10.80
2019-05-03T06:37:09.532Z,10.80
2019-05-03T06:39:37.230Z,10.90
2019-05-03T06:42:09.906Z,11.00
2019-05-03T06:44:35.878Z,11.30
2019-05-03T06:47:09.066Z,11.70
2019-05-03T06:49:39.229Z,11.60
2019-05-03T06:52:05.894Z,11.40
2019-05-03T06:54:37.679Z,11.70
2019-05-03T06:57:09.520Z,11.80
2019-05-03T06:59:38.596Z,12.10
2019-05-03T07:02:09.096Z,12.10
2019-05-03T07:04:53.869Z,12.20
2019-05-03T07:07:27.851Z,12.20
2019-05-03T07:09:57.762Z,12.00
2019-05-03T07:12:28.039Z,12.00
2019-05-03T07:14:56.589Z,12.30
2019-05-03T07:17:25.840Z,12.30
2019-05-03T07:19:54.744Z,11.70
2019-05-03T07:22:24.459Z,11.40
2019-05-03T07:24:54.665Z,11.60
2019-05-03T07:27:24.770Z,11.20
2019-05-03T07:29:55.458Z,11.10
2019-05-03T07:32:24.662Z,11.20
2019-05-03T07:34:55.630Z,11.10
2019-05-03T07:37:24.664Z,11.10
2019-05-03T07:39:55.458Z,11.30
2019-05-03T07:42:25.458Z,11.30
2019-05-03T07:44:55.801Z,11.40
2019-05-03T07:47:24.603Z,11.50
2019-05-03T07:49:55.680Z,11.60
2019-05-03T07:52:25.880Z,12.00
2019-05-03T07:54:55.212Z,12.10
2019-05-03T07:57:25.631Z,11.60
2019-05-03T07:59:55.718Z,11.40
2019-05-03T08:02:27.244Z,11.50
2019-05-03T08:04:54.907Z,11.40
2019-05-03T08:07:25.517Z,11.20
2019-05-03T08:09:55.551Z,11.30
2019-05-03T08:12:24.706Z,11.20
2019-05-03T08:14:55.102Z,11.20
2019-05-03T08:17:25.369Z,11.10
2019-05-03T08:19:55.179Z,11.20
2019-05-03T08:22:25.522Z,11.40
2019-05-03T08:24:55.530Z,11.50
2019-05-03T08:27:25.117Z,11.70
2019-05-03T08:29:55.677Z,11.80
2019-05-03T08:32:25.747Z,11.70
2019-05-03T08:35:04.905Z,11.60
2019-05-03T08:37:35.043Z,11.70
2019-05-03T08:40:05.252Z,12.10
2019-05-03T08:42:35.151Z,12.50
2019-05-03T08:45:07.932Z,12.90
2019-05-03T08:47:35.475Z,12.80
2019-05-03T08:50:06.308Z,13.00
2019-05-03T08:52:34.917Z,13.20
2019-05-03T08:55:05.264Z,13.40
2019-05-03T08:57:35.405Z,13.50
2019-05-03T09:00:09.647Z,14.00
2019-05-03T09:02:38.132Z,13.50
2019-05-03T09:05:07.414Z,13.00
2019-05-03T09:07:35.911Z,13.40
2019-05-03T09:10:12.350Z,13.30
2019-05-03T09:12:56.079Z,13.10
2019-05-03T09:15:25.200Z,13.30
2019-05-03T09:17:55.268Z,13.00
2019-05-03T09:20:25.073Z,13.00
2019-05-03T09:22:54.918Z,13.40
2019-05-03T09:25:24.786Z,13.70
2019-05-03T09:27:55.150Z,13.80
2019-05-03T09:30:25.125Z,13.80
2019-05-03T09:32:55.135Z,13.60
2019-05-03T09:35:32.168Z,13.80
2019-05-03T09:37:55.554Z,14.20
2019-05-03T09:40:24.671Z,13.60
2019-05-03T09:42:55.076Z,13.80
2019-05-03T09:45:24.561Z,13.80
2019-05-03T09:47:55.017Z,14.00
2019-05-03T09:50:24.707Z,14.00
2019-05-03T09:52:55.431Z,14.20
2019-05-03T09:55:28.154Z,14.50
2019-05-03T09:57:56.726Z,14.40
2019-05-03T10:00:25.216Z,14.40
2019-05-03T10:02:54.820Z,14.10
2019-05-03T10:05:25.557Z,14.20
2019-05-03T10:07:53.879Z,14.30
2019-05-03T10:10:24.692Z,14.20
2019-05-03T10:12:54.938Z,14.30
2019-05-03T10:15:36.626Z,14.70
2019-05-03T10:18:10.595Z,14.50
2019-05-03T10:20:35.867Z,14.80
2019-05-03T10:23:06.359Z,14.90
2019-05-03T10:25:35.791Z,14.30
2019-05-03T10:28:06.144Z,14.00
2019-05-03T10:30:35.424Z,14.10
2019-05-03T10:33:08.712Z,13.90
2019-05-03T10:35:37.169Z,13.90
2019-05-03T10:38:05.924Z,14.40
2019-05-03T10:40:35.759Z,14.50
2019-05-03T10:43:05.711Z,14.30
2019-05-03T10:45:35.477Z,14.30
2019-05-03T10:48:04.746Z,14.70
2019-05-03T10:50:34.784Z,14.70
2019-05-03T10:53:16.782Z,15.30
2019-05-03T10:55:47.150Z,15.20
2019-05-03T10:58:17.347Z,15.20
2019-05-03T11:00:52.782Z,15.50
2019-05-03T11:03:18.074Z,15.80
2019-05-03T11:05:46.728Z,15.80
2019-05-03T11:08:15.366Z,15.20
2019-05-03T11:10:43.782Z,15.00
2019-05-03T11:13:12.258Z,14.70
2019-05-03T11:15:40.669Z,14.70
2019-05-03T11:18:09.354Z,14.90
2019-05-03T11:20:38.063Z,14.60
2019-05-03T11:23:07.699Z,14.20
2019-05-03T11:25:36.850Z,13.90
2019-05-03T11:28:11.051Z,14.10
2019-05-03T11:30:51.947Z,14.30
2019-05-03T11:33:11.363Z,14.20
2019-05-03T11:35:47.152Z,14.00
2019-05-03T11:38:20.172Z,13.90
2019-05-03T11:40:47.901Z,14.00
2019-05-03T11:43:17.995Z,13.90
2019-05-03T11:45:46.587Z,13.90
2019-05-03T11:48:15.097Z,14.20
2019-05-03T11:50:45.316Z,14.20
2019-05-03T11:53:14.538Z,14.20
2019-05-03T11:55:46.164Z,14.10
2019-05-03T11:58:21.134Z,14.20
2019-05-03T12:00:51.636Z,14.10
2019-05-03T12:03:25.042Z,13.90
2019-05-03T12:05:57.546Z,13.70
2019-05-03T12:08:26.015Z,13.80
2019-05-03T12:10:58.596Z,14.00
2019-05-03T12:13:31.040Z,14.00
2019-05-03T12:16:00.605Z,14.30
2019-05-03T12:18:29.715Z,14.20
2019-05-03T12:20:59.887Z,14.30
2019-05-03T12:23:31.309Z,14.60
2019-05-03T12:25:59.354Z,14.50
2019-05-03T12:28:28.276Z,14.40
2019-05-03T12:30:56.854Z,14.50
2019-05-03T12:33:26.062Z,14.40
2019-05-03T12:35:55.196Z,14.50
2019-05-03T12:38:25.534Z,14.50
2019-05-03T12:40:54.667Z,14.90
2019-05-03T12:43:25.176Z,15.00
2019-05-03T12:45:53.414Z,15.20
2019-05-03T12:48:21.942Z,15.00
2019-05-03T12:50:50.960Z,14.60
2019-05-03T12:53:21.978Z,14.40
2019-05-03T12:55:49.869Z,14.40
2019-05-03T12:58:18.555Z,14.20
2019-05-03T13:00:48.776Z,14.30
2019-05-03T13:03:18.801Z,14.60
2019-05-03T13:05:47.258Z,14.90
2019-05-03T13:08:39.288Z,15.50
2019-05-03T13:11:07.888Z,15.40
2019-05-03T13:13:36.564Z,14.80
2019-05-03T13:16:06.027Z,14.60
2019-05-03T13:18:35.378Z,14.30
2019-05-03T13:21:05.742Z,14.00
2019-05-03T13:23:35.303Z,14.40
2019-05-03T13:26:05.621Z,14.50
2019-05-03T13:28:34.757Z,14.30
2019-05-03T13:31:05.426Z,14.10
2019-05-03T13:33:34.837Z,14.40
2019-05-03T13:36:04.152Z,14.80
2019-05-03T13:38:34.680Z,14.60
2019-05-03T13:41:02.955Z,14.40
2019-05-03T13:43:31.497Z,14.50
2019-05-03T13:46:00.142Z,14.60
2019-05-03T13:48:41.600Z,14.90
2019-05-03T13:50:58.842Z,15.00
2019-05-03T13:53:27.296Z,15.00
2019-05-03T13:55:55.805Z,14.50
2019-05-03T13:58:26.229Z,14.40
2019-05-03T14:00:54.989Z,14.20
2019-05-03T14:03:23.634Z,13.80
2019-05-03T14:05:52.109Z,13.60
2019-05-03T14:08:20.566Z,13.80
2019-05-03T14:10:49.761Z,14.00
2019-05-03T14:13:18.242Z,14.00
2019-05-03T14:15:46.693Z,14.20
2019-05-03T14:18:15.577Z,14.30
2019-05-03T14:20:48.554Z,14.30
2019-05-03T14:23:17.017Z,14.50
2019-05-03T14:25:45.471Z,15.00
2019-05-03T14:28:14.602Z,15.10
2019-05-03T14:30:45.326Z,14.70
2019-05-03T14:33:14.001Z,14.80
2019-05-03T14:35:42.484Z,14.90
2019-05-03T14:38:10.951Z,15.30
2019-05-03T14:40:39.494Z,14.70
2019-05-03T14:43:07.986Z,14.70
2019-05-03T14:45:36.486Z,14.90
2019-05-03T14:48:06.158Z,15.40
2019-05-03T14:50:35.162Z,15.70
2019-05-03T14:53:05.480Z,15.80
2019-05-03T14:55:41.554Z,15.80
2019-05-03T14:58:29.632Z,15.60
2019-05-03T15:01:04.673Z,15.60
2019-05-03T15:03:32.571Z,15.70
2019-05-03T15:06:01.067Z,15.70
2019-05-03T15:08:29.506Z,15.10
2019-05-03T15:10:58.009Z,15.00
2019-05-03T15:13:26.476Z,15.00
2019-05-03T15:15:55.002Z,14.90
2019-05-03T15:18:25.413Z,14.80
2019-05-03T15:20:54.915Z,14.70
2019-05-03T15:23:25.477Z,14.60
2019-05-03T15:25:54.565Z,14.40
2019-05-03T15:28:25.020Z,14.20
2019-05-03T15:30:55.277Z,14.20
2019-05-03T15:33:23.609Z,14.30
2019-05-03T15:35:52.069Z,14.50
2019-05-03T15:38:20.550Z,14.60
2019-05-03T15:40:49.098Z,14.50
2019-05-03T15:43:19.307Z,14.70
2019-05-03T15:46:07.270Z,14.80
2019-05-03T15:48:40.286Z,14.80
2019-05-03T15:51:08.000Z,14.60
2019-05-03T15:53:36.446Z,14.60
2019-05-03T15:56:05.385Z,14.70
2019-05-03T15:58:33.911Z,14.50
2019-05-03T16:01:04.534Z,14.50
2019-05-03T16:03:32.820Z,14.50
2019-05-03T16:06:01.234Z,14.50
2019-05-03T16:08:29.939Z,14.60
2019-05-03T16:10:58.787Z,14.60
2019-05-03T16:13:27.268Z,14.40
2019-05-03T16:15:55.846Z,14.50
2019-05-03T16:18:27.064Z,14.50
2019-05-03T16:20:55.561Z,14.50
2019-05-03T16:23:25.017Z,14.50
2019-05-03T16:25:54.403Z,14.40
2019-05-03T16:28:24.903Z,14.20
2019-05-03T16:30:55.581Z,14.20
2019-05-03T16:33:27.831Z,14.10
2019-05-03T16:35:54.875Z,13.90
2019-05-03T16:38:24.842Z,14.00
2019-05-03T16:40:54.552Z,14.10
2019-05-03T16:43:25.131Z,14.10
2019-05-03T16:45:55.017Z,14.00
2019-05-03T16:48:24.696Z,14.10
2019-05-03T16:50:53.342Z,14.10
2019-05-03T16:53:21.779Z,14.10
2019-05-03T16:55:50.207Z,14.10
2019-05-03T16:58:18.677Z,14.10
2019-05-03T17:00:47.159Z,14.00
2019-05-03T17:03:17.343Z,13.90
2019-05-03T17:05:50.161Z,13.80
2019-05-03T17:08:35.205Z,13.80
2019-05-03T17:11:05.725Z,14.00
2019-05-03T17:13:34.649Z,14.00
2019-05-03T17:16:04.762Z,14.10
2019-05-03T17:18:35.285Z,14.10
2019-05-03T17:21:04.822Z,13.90
2019-05-03T17:23:35.129Z,13.90
2019-05-03T17:26:03.506Z,13.90
2019-05-03T17:28:32.057Z,13.90
2019-05-03T17:31:00.511Z,13.90
2019-05-03T17:33:28.987Z,13.90
2019-05-03T17:35:57.839Z,14.00
2019-05-03T17:38:26.297Z,14.00
2019-05-03T17:41:04.989Z,14.10
2019-05-03T17:43:35.082Z,13.90
2019-05-03T17:46:05.279Z,13.80
2019-05-03T17:48:34.887Z,13.50
2019-05-03T17:51:04.451Z,13.50
2019-05-03T17:53:37.617Z,13.50
2019-05-03T17:56:18.901Z,13.30
2019-05-03T17:58:48.976Z,13.20
2019-05-03T18:01:19.104Z,13.20
2019-05-03T18:04:06.596Z,13.10
2019-05-03T18:06:31.561Z,13.10
2019-05-03T18:09:10.299Z,12.90
2019-05-03T18:11:40.393Z,12.90
2019-05-03T18:14:08.837Z,12.80
2019-05-03T18:16:37.405Z,12.70
2019-05-03T18:19:06.046Z,12.80
2019-05-03T18:21:37.876Z,12.70
2019-05-03T18:24:09.688Z,12.70
2019-05-03T18:26:38.281Z,12.60
2019-05-03T18:29:06.749Z,12.50
2019-05-03T18:31:44.689Z,12.50
2019-05-03T18:34:19.708Z,12.50
2019-05-03T18:36:45.026Z,12.40
2019-05-03T18:39:14.733Z,12.40
2019-05-03T18:41:45.064Z,12.30
2019-05-03T18:44:15.391Z,12.30
2019-05-03T18:46:48.380Z,12.30
2019-05-03T18:49:16.303Z,12.30
2019-05-03T18:51:45.000Z,12.20
2019-05-03T18:54:15.493Z,12.20
2019-05-03T18:56:43.899Z,12.10
2019-05-03T18:59:14.529Z,12.10
2019-05-03T19:01:45.045Z,12.10
2019-05-03T19:04:34.276Z,12.00
2019-05-03T19:07:04.373Z,11.90
2019-05-03T19:09:32.053Z,11.90
2019-05-03T19:12:02.169Z,11.90
2019-05-03T19:14:30.715Z,11.80
2019-05-03T19:17:16.907Z,11.80
2019-05-03T19:19:47.169Z,11.70
2019-05-03T19:22:15.741Z,11.70
2019-05-03T19:24:45.746Z,11.60
2019-05-03T19:27:14.834Z,11.60
2019-05-03T19:29:44.928Z,11.40
2019-05-03T19:32:15.009Z,11.40
2019-05-03T19:34:50.102Z,11.40
2019-05-03T19:37:14.513Z,11.30
2019-05-03T19:39:43.187Z,11.40
2019-05-03T19:42:11.789Z,11.30
2019-05-03T19:44:40.491Z,11.30
2019-05-03T19:47:09.170Z,11.30
2019-05-03T19:49:37.640Z,11.30
2019-05-03T19:52:06.259Z,11.20
2019-05-03T19:54:36.499Z,11.20
2019-05-03T19:57:05.161Z,11.20
2019-05-03T19:59:44.763Z,11.20
2019-05-03T20:02:24.467Z,11.20
2019-05-03T20:05:10.651Z,11.20
2019-05-03T20:07:57.226Z,11.20
2019-05-03T20:10:37.366Z,11.10
2019-05-03T20:13:06.058Z,11.00
2019-05-03T20:15:34.544Z,10.90
2019-05-03T20:18:04.792Z,11.00
2019-05-03T20:20:33.449Z,11.00
2019-05-03T20:23:02.167Z,11.10
2019-05-03T20:25:30.713Z,11.10
2019-05-03T20:27:59.252Z,11.10
2019-05-03T20:30:27.838Z,11.10
2019-05-03T20:32:56.355Z,11.00
2019-05-03T20:35:25.301Z,11.00
2019-05-03T20:37:55.368Z,10.90
2019-05-03T20:40:25.551Z,10.90
2019-05-03T20:43:04.967Z,10.90
2019-05-03T20:45:44.547Z,10.80
2019-05-03T20:48:14.803Z,10.60
2019-05-03T20:50:44.733Z,10.50
2019-05-03T20:53:13.356Z,10.40
2019-05-03T20:55:41.928Z,10.30
2019-05-03T20:58:11.483Z,10.20
2019-05-03T21:00:40.064Z,10.20
2019-05-03T21:03:08.606Z,10.00
2019-05-03T21:05:37.527Z,10.00
2019-05-03T21:08:06.202Z,10.00
2019-05-03T21:10:34.799Z,10.00
2019-05-03T21:13:05.279Z,10.00
2019-05-03T21:15:44.553Z,10.00
2019-05-03T21:18:15.189Z,10.20
2019-05-03T21:20:45.492Z,10.10
2019-05-03T21:23:15.739Z,10.10
2019-05-03T21:26:05.733Z,10.00
2019-05-03T21:28:16.187Z,10.10
2019-05-03T21:30:45.470Z,10.10
2019-05-03T21:33:15.771Z,9.90
2019-05-03T21:35:45.228Z,9.80
2019-05-03T21:38:13.853Z,9.80
2019-05-03T21:40:42.286Z,9.70
2019-05-03T21:43:10.964Z,9.80
2019-05-03T21:45:41.431Z,9.70
2019-05-03T21:48:11.565Z,9.50
2019-05-03T21:50:40.042Z,9.40
2019-05-03T21:53:08.562Z,9.40
2019-05-03T21:55:37.038Z,9.20
2019-05-03T21:58:05.717Z,9.20
2019-05-03T22:00:45.382Z,9.10
2019-05-03T22:03:14.566Z,9.00
2019-05-03T22:05:54.810Z,9.00
2019-05-03T22:08:13.435Z,9.00
2019-05-03T22:10:42.046Z,8.90
2019-05-03T22:13:10.677Z,8.90
2019-05-03T22:15:40.895Z,8.90
2019-05-03T22:18:11.119Z,8.90
2019-05-03T22:20:56.313Z,8.90
2019-05-03T22:23:38.344Z,8.80
2019-05-03T22:26:07.556Z,8.80
2019-05-03T22:28:36.063Z,8.80
2019-05-03T22:31:06.765Z,8.90
2019-05-03T22:33:34.824Z,9.00
2019-05-03T22:36:08.602Z,9.00
2019-05-03T22:38:36.380Z,8.90
2019-05-03T22:41:05.501Z,8.90
2019-05-03T22:43:34.871Z,8.90
2019-05-03T22:46:05.190Z,8.80
2019-05-03T22:48:33.672Z,8.80
2019-05-03T22:51:05.642Z,8.70
2019-05-03T22:53:34.440Z,8.70
2019-05-03T22:56:04.759Z,8.70
2019-05-03T22:58:35.334Z,8.60
2019-05-03T23:01:03.900Z,8.60
2019-05-03T23:03:35.428Z,8.60
2019-05-03T23:06:05.054Z,8.60
2019-05-03T23:08:34.587Z,8.60
2019-05-03T23:11:05.126Z,8.60
2019-05-03T23:13:33.433Z,8.60
2019-05-03T23:16:01.919Z,8.60
2019-05-03T23:18:30.472Z,8.60
2019-05-03T23:21:15.730Z,8.50
2019-05-03T23:23:51.331Z,8.60
2019-05-03T23:26:19.767Z,8.50
2019-05-03T23:28:48.311Z,8.50
2019-05-03T23:31:16.800Z,8.50
2019-05-03T23:33:45.422Z,8.50
2019-05-03T23:36:15.386Z,8.60
2019-05-03T23:38:45.229Z,8.60
2019-05-03T23:41:15.331Z,8.50
2019-05-03T23:43:45.122Z,8.50
2019-05-03T23:46:15.146Z,8.50
2019-05-03T23:48:44.676Z,8.50
2019-05-03T23:51:14.991Z,8.50
2019-05-03T23:53:44.675Z,8.50
2019-05-03T23:56:17.587Z,8.50
2019-05-03T23:58:46.061Z,8.50
